Terminal Aerodrome Forecast
Issued by NWS

Home | Current Version | Previous Version | Text Only | Print | Product List | Glossary On
Versions: 1 2 3 4 5 6 7 8 9 10 11 12 13 14 15 16 17 18 19 20 21 22 23 24 25 26 27
000
FTUS46 KEKA 291700
TAFCEC
TAF
KCEC 291735Z 2918/3018 20003KT 3SM BR OVC002
     FM292100 21008KT 5SM BR OVC003
     FM300000 18007KT 1 1/2SM BR OVC002
     FM300800 VRB04KT 1 1/2SM BR OVC002=

USA.gov is the U.S. government's official web portal to all federal, state and local government web resources and services.